createdAt,value
2022-12-25T00:01:15.445Z,6.90
2022-12-25T00:03:42.997Z,6.70
2022-12-25T00:06:10.658Z,6.48
2022-12-25T00:08:39.703Z,6.41
2022-12-25T00:11:09.530Z,6.39
2022-12-25T00:13:36.848Z,6.41
2022-12-25T00:16:22.486Z,6.48
2022-12-25T00:18:50.183Z,6.40
2022-12-25T00:21:18.124Z,6.61
2022-12-25T00:23:45.173Z,6.60
2022-12-25T00:26:15.176Z,6.58
2022-12-25T00:28:42.179Z,6.50
2022-12-25T00:31:15.532Z,6.70
2022-12-25T00:33:45.285Z,6.86
2022-12-25T00:36:14.121Z,6.95
2022-12-25T00:38:41.604Z,7.03
2022-12-25T00:41:11.184Z,6.99
2022-12-25T00:43:47.575Z,6.90
2022-12-25T00:46:14.692Z,6.84
2022-12-25T00:48:41.895Z,6.82
2022-12-25T00:51:11.794Z,6.76
2022-12-25T00:53:38.849Z,6.72
2022-12-25T00:56:07.545Z,6.62
2022-12-25T00:58:35.691Z,6.62
2022-12-25T01:01:03.132Z,6.54
2022-12-25T01:03:30.379Z,6.61
2022-12-25T01:06:02.955Z,6.69
2022-12-25T01:08:32.023Z,6.74
2022-12-25T01:11:09.210Z,6.53
2022-12-25T01:13:37.417Z,6.51
2022-12-25T01:16:09.942Z,6.42
2022-12-25T01:18:38.323Z,6.24
2022-12-25T01:21:10.476Z,6.13
2022-12-25T01:23:38.766Z,5.92
2022-12-25T01:26:07.261Z,5.76
2022-12-25T01:28:34.968Z,5.66
2022-12-25T01:31:02.813Z,5.62
2022-12-25T01:33:30.281Z,5.62
2022-12-25T01:35:58.877Z,5.69
2022-12-25T01:38:26.120Z,5.72
2022-12-25T01:40:53.123Z,5.95
2022-12-25T01:43:28.741Z,5.77
2022-12-25T01:45:56.158Z,5.77
2022-12-25T01:48:29.085Z,5.86
2022-12-25T01:50:59.427Z,6.17
2022-12-25T01:53:27.032Z,6.12
2022-12-25T01:55:57.793Z,5.95
2022-12-25T01:58:25.441Z,6.04
2022-12-25T02:00:53.097Z,6.20
2022-12-25T02:03:21.816Z,6.17
2022-12-25T02:05:49.412Z,6.21
2022-12-25T02:08:18.899Z,6.05
2022-12-25T02:10:45.985Z,6.17
2022-12-25T02:13:18.674Z,5.86
2022-12-25T02:16:23.725Z,5.71
2022-12-25T02:19:03.351Z,5.83
2022-12-25T02:22:01.046Z,5.86
2022-12-25T02:24:58.389Z,5.69
2022-12-25T02:28:08.579Z,5.83
2022-12-25T02:30:46.572Z,5.92
2022-12-25T02:33:43.858Z,5.95
2022-12-25T02:36:14.345Z,5.71
2022-12-25T02:39:02.693Z,5.77
2022-12-25T02:41:34.589Z,5.75
2022-12-25T02:44:23.140Z,5.87
2022-12-25T02:47:09.978Z,5.82
2022-12-25T02:49:57.970Z,5.92
2022-12-25T02:52:46.516Z,5.76
2022-12-25T02:55:36.235Z,5.79
2022-12-25T02:58:28.594Z,5.76
2022-12-25T03:01:23.492Z,5.81
2022-12-25T03:04:13.225Z,5.78
2022-12-25T03:06:43.479Z,5.73
2022-12-25T03:09:52.501Z,5.80
2022-12-25T03:12:41.050Z,5.83
2022-12-25T03:15:28.847Z,5.88
2022-12-25T03:17:59.406Z,5.78
2022-12-25T03:20:45.252Z,5.82
2022-12-25T03:23:33.950Z,5.83
2022-12-25T03:26:19.329Z,5.70
2022-12-25T03:28:46.675Z,5.47
2022-12-25T03:31:25.885Z,5.55
2022-12-25T03:34:23.095Z,5.80
2022-12-25T03:37:56.461Z,6.01
2022-12-25T03:41:19.214Z,5.86
2022-12-25T03:44:14.963Z,5.92
2022-12-25T03:47:11.273Z,5.93
2022-12-25T03:50:06.025Z,6.00
2022-12-25T03:52:53.272Z,5.98
2022-12-25T03:55:40.672Z,5.88
2022-12-25T03:58:40.329Z,5.57
2022-12-25T04:01:25.990Z,5.80
2022-12-25T04:04:11.546Z,5.67
2022-12-25T04:06:57.135Z,5.62
2022-12-25T04:09:43.003Z,5.47
2022-12-25T04:12:28.574Z,5.36
2022-12-25T04:15:14.395Z,5.48
2022-12-25T04:17:59.859Z,5.37
2022-12-25T04:20:45.299Z,5.29
2022-12-25T04:23:31.334Z,5.16
2022-12-25T04:26:17.230Z,5.04
2022-12-25T04:29:02.918Z,5.08
2022-12-25T04:31:48.588Z,5.15
2022-12-25T04:34:34.467Z,5.23
2022-12-25T04:37:01.490Z,5.28
2022-12-25T04:39:28.620Z,5.29
2022-12-25T04:41:55.571Z,5.37
2022-12-25T04:44:22.542Z,5.34
2022-12-25T04:46:49.552Z,5.24
2022-12-25T04:49:16.544Z,5.27
2022-12-25T04:51:43.779Z,5.15
2022-12-25T04:54:10.815Z,4.94
2022-12-25T04:56:43.495Z,5.01
2022-12-25T04:59:12.778Z,4.85
2022-12-25T05:01:39.827Z,4.76
2022-12-25T05:04:06.971Z,4.74
2022-12-25T05:06:34.009Z,4.67
2022-12-25T05:09:01.084Z,4.72
2022-12-25T05:11:28.164Z,4.87
2022-12-25T05:13:55.242Z,5.21
2022-12-25T05:16:22.514Z,5.23
2022-12-25T05:18:51.139Z,5.22
2022-12-25T05:21:19.112Z,5.23
2022-12-25T05:23:50.552Z,5.23
2022-12-25T05:26:18.776Z,5.23
2022-12-25T05:28:46.251Z,5.19
2022-12-25T05:31:13.371Z,5.31
2022-12-25T05:33:40.451Z,5.31
2022-12-25T05:36:09.610Z,5.25
2022-12-25T05:38:37.038Z,5.31
2022-12-25T05:41:04.276Z,5.28
2022-12-25T05:43:31.483Z,5.38
2022-12-25T05:45:58.755Z,5.42
2022-12-25T05:48:25.854Z,5.44
2022-12-25T05:50:52.867Z,5.40
2022-12-25T05:53:19.844Z,5.33
2022-12-25T05:55:46.943Z,5.36
2022-12-25T05:58:13.881Z,5.41
2022-12-25T06:00:43.751Z,5.33
2022-12-25T06:03:10.933Z,5.30
2022-12-25T06:05:38.532Z,5.33
2022-12-25T06:08:05.647Z,5.40
2022-12-25T06:10:32.715Z,5.41
2022-12-25T06:12:59.819Z,5.40
2022-12-25T06:15:26.824Z,5.43
2022-12-25T06:17:53.864Z,5.53
2022-12-25T06:20:21.079Z,5.44
2022-12-25T06:22:48.200Z,5.57
2022-12-25T06:25:15.557Z,5.50
2022-12-25T06:27:42.892Z,5.54
2022-12-25T06:30:10.563Z,5.62
2022-12-25T06:32:37.780Z,5.58
2022-12-25T06:35:05.464Z,5.61
2022-12-25T06:37:32.498Z,5.80
2022-12-25T06:39:59.537Z,5.90
2022-12-25T06:42:26.569Z,5.83
2022-12-25T06:44:53.686Z,5.93
2022-12-25T06:47:20.804Z,6.07
2022-12-25T06:49:47.916Z,6.02
2022-12-25T06:52:14.966Z,5.98
2022-12-25T06:54:41.946Z,6.17
2022-12-25T06:57:09.018Z,6.18
2022-12-25T06:59:35.944Z,6.22
2022-12-25T07:02:03.258Z,6.26
2022-12-25T07:04:40.815Z,6.39
2022-12-25T07:07:09.738Z,6.40
2022-12-25T07:09:39.115Z,6.54
2022-12-25T07:12:11.762Z,6.64
2022-12-25T07:14:38.815Z,6.82
2022-12-25T07:17:06.447Z,6.87
2022-12-25T07:19:33.474Z,7.07
2022-12-25T07:22:00.489Z,7.12
2022-12-25T07:24:27.468Z,7.22
2022-12-25T07:26:54.513Z,7.26
2022-12-25T07:29:21.638Z,7.11
2022-12-25T07:31:48.853Z,7.20
2022-12-25T07:34:18.046Z,7.23
2022-12-25T07:36:45.304Z,7.40
2022-12-25T07:39:12.711Z,7.47
2022-12-25T07:41:40.349Z,7.64
2022-12-25T07:44:14.863Z,7.43
2022-12-25T07:46:41.854Z,7.50
2022-12-25T07:49:08.816Z,7.69
2022-12-25T07:51:35.809Z,7.72
2022-12-25T07:54:02.896Z,7.73
2022-12-25T07:56:29.907Z,7.71
2022-12-25T07:58:57.211Z,7.89
2022-12-25T08:01:27.120Z,7.84
2022-12-25T08:03:59.248Z,7.95
2022-12-25T08:06:30.759Z,8.06
2022-12-25T08:09:01.965Z,8.11
2022-12-25T08:11:28.970Z,8.08
2022-12-25T08:13:55.948Z,8.29
2022-12-25T08:16:23.478Z,8.23
2022-12-25T08:18:50.583Z,8.18
2022-12-25T08:21:17.638Z,8.53
2022-12-25T08:23:46.456Z,8.77
2022-12-25T08:26:16.124Z,8.78
2022-12-25T08:28:43.532Z,8.83
2022-12-25T08:31:22.386Z,8.68
2022-12-25T08:33:51.613Z,8.86
2022-12-25T08:36:19.374Z,8.98
2022-12-25T08:38:47.180Z,9.07
2022-12-25T08:41:15.036Z,9.07
2022-12-25T08:43:42.921Z,9.22
2022-12-25T08:46:10.446Z,9.27
2022-12-25T08:48:38.151Z,9.28
2022-12-25T08:51:11.361Z,9.42
2022-12-25T08:53:38.463Z,9.43
2022-12-25T08:56:05.868Z,9.43
2022-12-25T08:58:33.220Z,9.45
2022-12-25T09:01:00.704Z,9.32
2022-12-25T09:03:27.958Z,9.22
2022-12-25T09:05:55.592Z,9.36
2022-12-25T09:08:22.603Z,9.38
2022-12-25T09:10:49.642Z,9.31
2022-12-25T09:13:16.792Z,9.30
2022-12-25T09:15:43.865Z,9.39
2022-12-25T09:18:10.930Z,9.48
2022-12-25T09:20:38.011Z,9.46
2022-12-25T09:23:09.978Z,9.49
2022-12-25T09:25:40.511Z,9.57
2022-12-25T09:28:07.606Z,9.47
2022-12-25T09:30:34.655Z,9.56
2022-12-25T09:33:01.683Z,9.65
2022-12-25T09:35:28.675Z,9.60
2022-12-25T09:37:55.651Z,9.87
2022-12-25T09:40:26.081Z,10.03
2022-12-25T09:42:55.033Z,10.12
2022-12-25T09:45:30.141Z,10.26
2022-12-25T09:47:57.611Z,10.25
2022-12-25T09:50:42.893Z,10.29
2022-12-25T09:53:22.121Z,10.30
2022-12-25T09:56:01.981Z,10.34
2022-12-25T09:58:30.596Z,10.41
2022-12-25T10:01:10.960Z,10.44
2022-12-25T10:04:07.064Z,10.46
2022-12-25T10:07:26.414Z,10.55
2022-12-25T10:10:34.166Z,10.50
2022-12-25T10:13:48.653Z,10.71
2022-12-25T10:16:58.476Z,10.75
2022-12-25T10:19:41.341Z,10.76
2022-12-25T10:22:30.038Z,10.73
2022-12-25T10:24:59.672Z,10.74
2022-12-25T10:27:37.320Z,10.81
2022-12-25T10:30:16.180Z,10.84
2022-12-25T10:32:44.684Z,10.90
2022-12-25T10:35:14.026Z,10.99
2022-12-25T10:37:42.579Z,11.14
2022-12-25T10:40:46.936Z,11.13
2022-12-25T10:43:37.542Z,11.01
2022-12-25T10:46:11.532Z,11.04
2022-12-25T10:48:43.735Z,11.06
2022-12-25T10:51:10.898Z,11.13
2022-12-25T10:53:43.431Z,11.34
2022-12-25T10:56:20.523Z,11.43
2022-12-25T10:58:47.601Z,11.31
2022-12-25T11:01:15.175Z,11.27
2022-12-25T11:03:46.092Z,11.28
2022-12-25T11:06:27.864Z,11.38
2022-12-25T11:09:00.573Z,11.48
2022-12-25T11:11:29.169Z,11.47
2022-12-25T11:14:02.186Z,11.48
2022-12-25T11:16:36.595Z,11.47
2022-12-25T11:19:20.544Z,11.47
2022-12-25T11:21:52.855Z,11.51
2022-12-25T11:24:22.887Z,11.44
2022-12-25T11:26:55.279Z,11.44
2022-12-25T11:29:47.176Z,11.47
2022-12-25T11:32:21.128Z,11.59
2022-12-25T11:34:49.699Z,11.65
2022-12-25T11:37:51.210Z,11.58
2022-12-25T11:40:22.722Z,11.64
2022-12-25T11:43:18.785Z,11.70
2022-12-25T11:45:50.518Z,11.78
2022-12-25T11:48:22.074Z,11.81
2022-12-25T11:50:54.237Z,11.91
2022-12-25T11:53:54.688Z,11.98
2022-12-25T11:56:26.930Z,12.02
2022-12-25T11:59:20.788Z,12.03
2022-12-25T12:01:55.312Z,12.25
2022-12-25T12:04:31.818Z,12.25
2022-12-25T12:07:20.238Z,12.18
2022-12-25T12:10:31.315Z,12.07
2022-12-25T12:13:39.430Z,12.16
2022-12-25T12:16:08.593Z,12.24
2022-12-25T12:18:36.583Z,12.30
2022-12-25T12:21:19.315Z,12.34
2022-12-25T12:24:09.703Z,12.33
2022-12-25T12:26:41.169Z,12.36
2022-12-25T12:29:22.213Z,12.39
2022-12-25T12:31:51.915Z,12.60
2022-12-25T12:34:34.060Z,12.68
2022-12-25T12:37:32.391Z,12.79
2022-12-25T12:40:00.180Z,12.86
2022-12-25T12:42:31.346Z,13.00
2022-12-25T12:45:08.856Z,12.83
2022-12-25T12:47:43.893Z,12.89
2022-12-25T12:50:37.381Z,12.84
2022-12-25T12:53:38.489Z,12.76
2022-12-25T12:56:19.990Z,12.71
2022-12-25T12:58:51.234Z,12.73
2022-12-25T13:01:36.262Z,12.69
2022-12-25T13:04:48.066Z,12.74
2022-12-25T13:07:36.167Z,12.88
2022-12-25T13:10:41.474Z,12.98
2022-12-25T13:13:34.238Z,13.10
2022-12-25T13:16:01.394Z,13.15
2022-12-25T13:18:28.701Z,13.26
2022-12-25T13:21:03.764Z,13.37
2022-12-25T13:23:33.750Z,13.31
2022-12-25T13:26:06.011Z,13.46
2022-12-25T13:28:37.466Z,13.54
2022-12-25T13:31:28.482Z,13.60
2022-12-25T13:34:03.758Z,13.62
2022-12-25T13:36:37.353Z,13.55
2022-12-25T13:39:08.640Z,13.57
2022-12-25T13:42:01.166Z,13.60
2022-12-25T13:44:35.052Z,13.91
2022-12-25T13:47:19.106Z,14.52
2022-12-25T13:49:46.880Z,15.61
2022-12-25T13:52:20.581Z,16.34
2022-12-25T13:55:21.685Z,16.76
2022-12-25T13:57:58.071Z,17.32
2022-12-25T14:00:38.930Z,17.68
2022-12-25T14:03:10.186Z,17.82
2022-12-25T14:05:42.873Z,17.89
2022-12-25T14:08:22.456Z,18.11
2022-12-25T14:10:51.670Z,18.29
2022-12-25T14:13:21.301Z,18.59
2022-12-25T14:15:49.707Z,18.44
2022-12-25T14:18:21.877Z,18.51
2022-12-25T14:21:10.678Z,18.68
2022-12-25T14:23:45.965Z,18.52
2022-12-25T14:26:33.138Z,18.59
2022-12-25T14:29:28.631Z,18.81
2022-12-25T14:31:58.749Z,18.61
2022-12-25T14:34:27.955Z,18.36
2022-12-25T14:36:55.414Z,18.08
2022-12-25T14:39:37.565Z,17.34
2022-12-25T14:42:23.021Z,16.13
2022-12-25T14:45:47.128Z,14.95
2022-12-25T14:48:25.725Z,14.11
2022-12-25T14:51:09.540Z,13.73
2022-12-25T14:53:50.171Z,13.23
2022-12-25T14:56:20.317Z,12.80
2022-12-25T14:58:51.683Z,12.52
2022-12-25T15:01:34.977Z,12.40
2022-12-25T15:04:15.646Z,12.27
2022-12-25T15:07:09.753Z,11.91
2022-12-25T15:09:37.984Z,11.66
2022-12-25T15:12:05.483Z,11.24
2022-12-25T15:14:32.451Z,10.91
2022-12-25T15:17:01.537Z,10.63
2022-12-25T15:19:37.000Z,10.42
2022-12-25T15:22:05.090Z,10.25
2022-12-25T15:24:32.216Z,10.14
2022-12-25T15:27:00.812Z,10.04
2022-12-25T15:30:00.057Z,10.04
2022-12-25T15:32:20.949Z,10.05
2022-12-25T15:34:50.154Z,9.90
2022-12-25T15:37:19.082Z,9.86
2022-12-25T15:39:46.434Z,9.95
2022-12-25T15:42:23.191Z,9.79
2022-12-25T15:44:51.052Z,9.67
2022-12-25T15:47:23.123Z,9.52
2022-12-25T15:49:50.311Z,9.40
2022-12-25T15:52:17.869Z,9.44
2022-12-25T15:54:45.171Z,9.37
2022-12-25T15:57:19.677Z,9.21
2022-12-25T15:59:47.136Z,9.05
2022-12-25T16:02:20.703Z,8.90
2022-12-25T16:04:48.036Z,8.91
2022-12-25T16:07:20.224Z,8.90
2022-12-25T16:09:47.386Z,8.79
2022-12-25T16:12:14.746Z,8.79
2022-12-25T16:14:41.914Z,8.88
2022-12-25T16:17:13.569Z,8.61
2022-12-25T16:19:40.784Z,8.45
2022-12-25T16:22:21.899Z,8.61
2022-12-25T16:24:50.108Z,8.50
2022-12-25T16:27:17.471Z,8.18
2022-12-25T16:29:44.748Z,8.09
2022-12-25T16:32:12.921Z,8.11
2022-12-25T16:34:40.783Z,8.28
2022-12-25T16:37:08.366Z,8.13
2022-12-25T16:39:35.394Z,8.02
2022-12-25T16:42:02.608Z,8.21
2022-12-25T16:44:29.850Z,8.15
2022-12-25T16:46:57.072Z,8.15
2022-12-25T16:49:24.456Z,8.19
2022-12-25T16:51:51.526Z,8.29
2022-12-25T16:54:18.529Z,8.03
2022-12-25T16:56:45.721Z,8.04
2022-12-25T16:59:12.829Z,7.91
2022-12-25T17:01:43.482Z,8.01
2022-12-25T17:04:10.837Z,8.19
2022-12-25T17:06:38.331Z,8.22
2022-12-25T17:09:05.535Z,8.07
2022-12-25T17:11:32.874Z,8.11
2022-12-25T17:14:02.776Z,7.95
2022-12-25T17:16:33.310Z,8.00
2022-12-25T17:19:04.542Z,7.97
2022-12-25T17:21:35.567Z,7.86
2022-12-25T17:24:04.252Z,7.81
2022-12-25T17:26:32.669Z,7.79
2022-12-25T17:28:59.817Z,7.78
2022-12-25T17:31:27.504Z,7.78
2022-12-25T17:33:54.666Z,7.83
2022-12-25T17:36:22.549Z,8.00
2022-12-25T17:38:50.046Z,8.15
2022-12-25T17:41:19.305Z,8.12
2022-12-25T17:43:47.500Z,8.00
2022-12-25T17:46:20.808Z,8.00
2022-12-25T17:48:50.333Z,8.05
2022-12-25T17:51:21.591Z,7.90
2022-12-25T17:53:51.208Z,8.12
2022-12-25T17:56:19.576Z,8.06
2022-12-25T17:58:55.435Z,7.93
2022-12-25T18:01:23.930Z,7.90
2022-12-25T18:03:51.694Z,7.96
2022-12-25T18:06:21.846Z,7.89
2022-12-25T18:08:49.993Z,8.02
2022-12-25T18:11:22.398Z,7.97
2022-12-25T18:13:52.434Z,7.87
2022-12-25T18:16:22.259Z,7.77
2022-12-25T18:18:52.637Z,7.88
2022-12-25T18:21:21.980Z,7.75
2022-12-25T18:23:50.086Z,7.65
2022-12-25T18:26:17.448Z,7.83
2022-12-25T18:28:44.859Z,7.70
2022-12-25T18:31:15.891Z,7.79
2022-12-25T18:33:43.372Z,7.94
2022-12-25T18:36:12.597Z,7.97
2022-12-25T18:38:39.727Z,7.96
2022-12-25T18:41:08.241Z,7.80
2022-12-25T18:43:53.501Z,7.79
2022-12-25T18:46:27.665Z,7.81
2022-12-25T18:48:57.128Z,8.17
2022-12-25T18:51:26.719Z,8.16
2022-12-25T18:53:58.358Z,8.40
2022-12-25T18:56:25.567Z,8.27
2022-12-25T18:58:52.642Z,8.12
2022-12-25T19:01:24.032Z,7.91
2022-12-25T19:03:53.919Z,8.17
2022-12-25T19:06:27.278Z,8.22
2022-12-25T19:08:55.868Z,8.03
2022-12-25T19:11:23.431Z,7.81
2022-12-25T19:13:50.713Z,7.78
2022-12-25T19:16:18.015Z,7.61
2022-12-25T19:18:45.658Z,7.51
2022-12-25T19:21:12.686Z,7.46
2022-12-25T19:23:40.132Z,7.47
2022-12-25T19:26:08.959Z,7.46
2022-12-25T19:28:36.712Z,7.33
2022-12-25T19:31:07.679Z,7.42
2022-12-25T19:33:36.247Z,7.40
2022-12-25T19:36:05.633Z,7.29
2022-12-25T19:38:32.812Z,7.22
2022-12-25T19:41:02.814Z,7.12
2022-12-25T19:43:31.878Z,6.91
2022-12-25T19:46:00.038Z,6.83
2022-12-25T19:48:27.878Z,6.76
2022-12-25T19:50:55.066Z,6.72
2022-12-25T19:53:24.163Z,6.62
2022-12-25T19:55:55.842Z,6.54
2022-12-25T19:58:24.012Z,6.44
2022-12-25T20:01:18.778Z,6.42
2022-12-25T20:03:47.167Z,6.36
2022-12-25T20:06:22.144Z,6.29
2022-12-25T20:08:50.857Z,6.26
2022-12-25T20:11:18.004Z,6.25
2022-12-25T20:13:45.208Z,6.21
2022-12-25T20:16:12.297Z,6.21
2022-12-25T20:18:40.486Z,6.10
2022-12-25T20:21:19.064Z,5.98
2022-12-25T20:23:49.828Z,5.80
2022-12-25T20:26:18.494Z,5.70
2022-12-25T20:28:45.894Z,5.65
2022-12-25T20:31:18.338Z,5.57
2022-12-25T20:33:46.063Z,5.50
2022-12-25T20:36:13.341Z,5.50
2022-12-25T20:38:41.011Z,5.47
2022-12-25T20:41:30.276Z,5.42
2022-12-25T20:43:57.818Z,5.37
2022-12-25T20:46:25.761Z,5.37
2022-12-25T20:48:53.252Z,5.44
2022-12-25T20:51:25.350Z,5.48
2022-12-25T20:53:53.095Z,5.54
2022-12-25T20:56:23.717Z,5.57
2022-12-25T20:58:58.885Z,5.57
2022-12-25T21:01:27.768Z,5.59
2022-12-25T21:03:55.691Z,5.62
2022-12-25T21:06:23.903Z,5.64
2022-12-25T21:08:50.893Z,5.62
2022-12-25T21:11:18.373Z,5.48
2022-12-25T21:13:46.293Z,5.34
2022-12-25T21:16:20.219Z,5.26
2022-12-25T21:18:47.853Z,5.24
2022-12-25T21:21:15.898Z,5.24
2022-12-25T21:23:43.298Z,5.21
2022-12-25T21:26:25.110Z,5.21
2022-12-25T21:28:54.462Z,5.22
2022-12-25T21:31:22.261Z,5.16
2022-12-25T21:33:53.637Z,5.09
2022-12-25T21:36:24.022Z,5.06
2022-12-25T21:39:10.975Z,5.03
2022-12-25T21:41:39.067Z,4.98
2022-12-25T21:44:06.680Z,4.94
2022-12-25T21:46:34.147Z,4.84
2022-12-25T21:49:01.311Z,4.70
2022-12-25T21:51:52.377Z,4.56
2022-12-25T21:54:21.528Z,4.48
2022-12-25T21:56:49.712Z,4.40
2022-12-25T21:59:20.573Z,4.36
2022-12-25T22:01:49.025Z,4.28
2022-12-25T22:04:18.487Z,4.25
2022-12-25T22:07:04.641Z,4.25
2022-12-25T22:09:32.305Z,4.24
2022-12-25T22:12:18.280Z,4.23
2022-12-25T22:14:56.792Z,4.17
2022-12-25T22:17:48.562Z,4.16
2022-12-25T22:20:25.203Z,4.15
2022-12-25T22:22:52.671Z,4.15
2022-12-25T22:25:20.444Z,4.14
2022-12-25T22:27:48.396Z,4.17
2022-12-25T22:30:18.586Z,4.18
2022-12-25T22:32:46.587Z,4.19
2022-12-25T22:35:14.221Z,4.23
2022-12-25T22:37:43.132Z,4.24
2022-12-25T22:40:13.009Z,4.28
2022-12-25T22:42:40.441Z,4.27
2022-12-25T22:45:08.328Z,4.23
2022-12-25T22:47:35.772Z,4.24
2022-12-25T22:50:02.947Z,4.24
2022-12-25T22:52:29.946Z,4.24
2022-12-25T22:54:56.994Z,4.22
2022-12-25T22:57:24.053Z,4.21
2022-12-25T22:59:53.181Z,4.23
2022-12-25T23:02:20.682Z,4.24
2022-12-25T23:04:48.320Z,4.22
2022-12-25T23:07:15.871Z,4.20
2022-12-25T23:09:44.220Z,4.19
2022-12-25T23:12:31.705Z,4.09
2022-12-25T23:14:59.021Z,3.92
2022-12-25T23:17:46.432Z,3.88
2022-12-25T23:20:33.541Z,3.85
2022-12-25T23:23:19.929Z,3.84
2022-12-25T23:26:05.461Z,3.82
2022-12-25T23:28:51.174Z,3.74
2022-12-25T23:31:20.974Z,3.70
2022-12-25T23:33:48.168Z,3.65
2022-12-25T23:36:15.303Z,3.64
2022-12-25T23:38:42.331Z,3.61
2022-12-25T23:41:09.379Z,3.60
2022-12-25T23:43:36.423Z,3.59
2022-12-25T23:46:03.702Z,3.62
2022-12-25T23:48:30.708Z,3.64
2022-12-25T23:51:01.779Z,3.65
2022-12-25T23:53:28.770Z,3.69
2022-12-25T23:55:57.714Z,3.71
2022-12-25T23:58:25.745Z,3.74
